Time;durP1;ratioP1;P1;durP2;ratioP2;P2;SDS_P1;SDS_P2;PMS_P1;PMS_P2;Temp;Humidity;BMP_temperature;BMP_pressure;BME280_temperature;BME280_humidity;BME280_pressure;Samples;Min_cycle;Max_cycle;Signal;HPM_P1;HPM_P2
2020/12/24 00:00:41;;;;;;;6.00;5.35;;;;;;;-3.42;84.80;101392.05;1775014;80;21384;-34
2020/12/24 00:03:09;;;;;;;9.70;5.25;;;;;;;-3.43;84.94;101386.51;1775059;80;20944;-35
2020/12/24 00:05:37;;;;;;;11.78;4.72;;;;;;;-3.44;85.04;101388.56;1775141;80;20896;-35
2020/12/24 00:08:05;;;;;;;6.12;5.28;;;;;;;-3.44;85.16;101386.03;1775017;80;21398;-35
2020/12/24 00:10:33;;;;;;;8.03;4.67;;;;;;;-3.44;85.22;101389.83;1775112;80;21058;-35
2020/12/24 00:13:01;;;;;;;6.83;4.78;;;;;;;-3.44;85.31;101390.72;1775090;80;21392;-35
2020/12/24 00:15:29;;;;;;;10.80;5.20;;;;;;;-3.44;85.41;101384.77;1774977;80;20935;-37
2020/12/24 00:17:58;;;;;;;8.53;5.10;;;;;;;-3.44;85.50;101386.03;1778070;80;20987;-35
2020/12/24 00:20:26;;;;;;;7.60;4.40;;;;;;;-3.47;85.53;101388.02;1780870;80;20927;-38
2020/12/24 00:22:54;;;;;;;9.30;4.60;;;;;;;-3.49;85.65;101395.94;1780851;80;20979;-35
2020/12/24 00:25:22;;;;;;;20.30;4.92;;;;;;;-3.50;85.78;101392.52;1780797;80;22816;-35
2020/12/24 00:27:50;;;;;;;5.15;4.65;;;;;;;-3.52;85.90;101397.04;1780891;80;20959;-34
2020/12/24 00:30:18;;;;;;;5.50;4.37;;;;;;;-3.53;86.02;101401.22;1780929;80;20928;-35
2020/12/24 00:32:45;;;;;;;6.70;4.72;;;;;;;-3.52;86.06;101393.23;1780771;80;20976;-35
2020/12/24 00:35:13;;;;;;;7.22;5.25;;;;;;;-3.53;86.09;101391.09;1780732;80;20979;-35
2020/12/24 00:37:41;;;;;;;12.05;5.25;;;;;;;-3.53;86.10;101382.64;1780840;80;21378;-34
2020/12/24 00:40:09;;;;;;;5.47;4.72;;;;;;;-3.55;86.20;101387.61;1780829;80;21056;-35
2020/12/24 00:42:37;;;;;;;7.20;4.85;;;;;;;-3.55;86.25;101388.88;1780802;80;20919;-35
2020/12/24 00:45:04;;;;;;;7.70;4.95;;;;;;;-3.56;86.34;101390.92;1780858;80;21485;-35
2020/12/24 00:47:32;;;;;;;5.75;4.67;;;;;;;-3.56;86.38;101390.03;1780887;80;20970;-35
2020/12/24 00:50:00;;;;;;;10.55;4.58;;;;;;;-3.58;86.47;101391.23;1780852;80;21206;-36
2020/12/24 00:52:29;;;;;;;7.12;4.75;;;;;;;-3.56;86.41;101383.33;1780756;80;21157;-35
2020/12/24 00:54:57;;;;;;;7.45;4.58;;;;;;;-3.57;86.38;101385.39;1780847;80;21510;-36
2020/12/24 00:57:25;;;;;;;8.03;4.20;;;;;;;-3.57;86.44;101384.12;1780807;80;21271;-37
2020/12/24 00:59:53;;;;;;;5.87;4.03;;;;;;;-3.55;86.47;101384.19;1780823;80;20979;-34
2020/12/24 01:02:21;;;;;;;3.83;3.35;;;;;;;-3.54;86.39;101372.89;1780857;80;22629;-35
2020/12/24 01:04:49;;;;;;;4.65;3.87;;;;;;;-3.56;86.42;101378.27;1780835;80;20982;-35
2020/12/24 01:07:17;;;;;;;8.98;4.15;;;;;;;-3.57;86.53;101376.91;1780829;80;20919;-36
2020/12/24 01:09:46;;;;;;;5.35;4.37;;;;;;;-3.58;86.58;101381.11;1780741;80;21506;-37
2020/12/24 01:12:14;;;;;;;7.40;4.35;;;;;;;-3.59;86.68;101381.91;1780897;80;21003;-34
2020/12/24 01:14:41;;;;;;;6.42;4.00;;;;;;;-3.58;86.84;101380.23;1780758;80;21197;-37
2020/12/24 01:17:09;;;;;;;13.68;4.85;;;;;;;-3.60;86.90;101378.89;1780658;80;20888;-35
2020/12/24 01:19:37;;;;;;;4.45;3.85;;;;;;;-3.59;86.98;101381.91;1780724;80;20911;-36
2020/12/24 01:22:04;;;;;;;6.05;4.45;;;;;;;-3.56;87.07;101379.91;1780797;80;21007;-35
2020/12/24 01:24:32;;;;;;;8.03;4.05;;;;;;;-3.57;87.10;101371.84;1780883;80;20998;-35
2020/12/24 01:27:00;;;;;;;8.05;4.65;;;;;;;-3.57;87.07;101373.11;1780902;80;21640;-35
2020/12/24 01:29:28;;;;;;;4.78;4.30;;;;;;;-3.56;87.08;101374.47;1780633;80;20927;-35
2020/12/24 01:31:56;;;;;;;9.00;4.62;;;;;;;-3.53;87.04;101369.56;1780788;80;21066;-36
2020/12/24 01:34:24;;;;;;;5.20;4.45;;;;;;;-3.54;86.99;101367.83;1780851;80;20986;-34
2020/12/24 01:36:52;;;;;;;5.33;4.20;;;;;;;-3.53;86.99;101369.56;1780767;80;20971;-36
2020/12/24 01:39:20;;;;;;;6.17;4.42;;;;;;;-3.54;86.92;101369.47;1780905;80;21060;-36
2020/12/24 01:41:48;;;;;;;10.10;4.33;;;;;;;-3.54;87.00;101370.73;1780741;80;20934;-35
2020/12/24 01:44:16;;;;;;;12.58;5.40;;;;;;;-3.55;87.01;101371.15;1780854;80;20947;-34
2020/12/24 01:46:44;;;;;;;6.75;5.20;;;;;;;-3.55;87.03;101366.08;1780609;80;21010;-38
2020/12/24 01:49:15;;;;;;;4.67;4.28;;;;;;;-3.54;87.07;101375.80;1780345;80;20983;-35
2020/12/24 01:51:50;;;;;;;13.45;5.80;;;;;;;-3.54;87.03;101369.47;1780814;80;21370;-35
2020/12/24 01:54:19;;;;;;;8.30;4.10;;;;;;;-3.55;87.02;101371.53;1780996;80;20983;-36
2020/12/24 01:56:47;;;;;;;12.60;5.58;;;;;;;-3.55;87.01;101363.93;1780794;80;20888;-35
2020/12/24 01:59:17;;;;;;;6.22;4.72;;;;;;;-3.53;87.00;101361.97;1780755;80;21030;-35
2020/12/24 02:01:46;;;;;;;18.50;6.30;;;;;;;-3.54;87.01;101361.88;1753044;80;20975;-35
2020/12/24 02:04:14;;;;;;;16.23;5.65;;;;;;;-3.55;87.04;101368.62;1780699;80;21374;-35
2020/12/24 02:06:43;;;;;;;16.05;5.97;;;;;;;-3.55;87.07;101362.28;1780737;80;21062;-36
2020/12/24 02:09:11;;;;;;;20.02;5.55;;;;;;;-3.54;87.04;101363.14;1780856;80;20999;-36
2020/12/24 02:11:39;;;;;;;6.53;5.35;;;;;;;-3.53;87.08;101364.50;1780678;80;20920;-35
2020/12/24 02:14:07;;;;;;;15.88;5.72;;;;;;;-3.52;87.08;101362.45;1780798;80;20967;-35
2020/12/24 02:16:36;;;;;;;15.48;4.78;;;;;;;-3.51;87.09;101351.94;1780781;80;21375;-34
2020/12/24 02:19:05;;;;;;;7.30;4.90;;;;;;;-3.48;87.13;101355.90;1780709;80;20975;-36
2020/12/24 02:21:34;;;;;;;5.12;4.58;;;;;;;-3.48;87.06;101357.16;1780723;80;20951;-35
2020/12/24 02:24:01;;;;;;;8.83;5.25;;;;;;;-3.48;87.06;101356.75;1780776;80;21569;-35
2020/12/24 02:26:30;;;;;;;12.55;5.12;;;;;;;-3.49;87.10;101351.63;1780807;80;20880;-35
2020/12/24 02:28:58;;;;;;;6.17;5.03;;;;;;;-3.52;87.13;101347.26;1780824;80;21286;-38
2020/12/24 02:31:26;;;;;;;6.60;5.05;;;;;;;-3.51;87.18;101345.61;1780730;80;20947;-35
2020/12/24 02:33:54;;;;;;;33.10;6.00;;;;;;;-3.51;87.20;101344.34;1780702;80;20963;-36
2020/12/24 02:36:22;;;;;;;10.38;5.08;;;;;;;-3.51;87.21;101342.67;1780629;80;21066;-35
2020/12/24 02:38:50;;;;;;;12.65;5.72;;;;;;;-3.50;87.23;101341.02;1780804;80;20943;-35
2020/12/24 02:41:18;;;;;;;12.60;5.17;;;;;;;-3.51;87.25;101344.34;1780780;80;21197;-35
2020/12/24 02:43:47;;;;;;;8.63;5.40;;;;;;;-3.52;87.29;101344.72;1780674;80;20983;-36
2020/12/24 02:46:15;;;;;;;7.58;5.00;;;;;;;-3.51;87.32;101345.61;1780732;80;20955;-34
2020/12/24 02:48:43;;;;;;;7.37;5.40;;;;;;;-3.52;87.36;101342.19;1780675;80;20963;-35
2020/12/24 02:51:11;;;;;;;7.50;5.15;;;;;;;-3.51;87.38;101341.41;1780766;80;21011;-36
2020/12/24 02:53:39;;;;;;;9.38;5.10;;;;;;;-3.50;87.41;101338.49;1780706;80;21205;-36
2020/12/24 02:56:08;;;;;;;6.95;4.90;;;;;;;-3.50;87.44;101344.41;1780739;80;21526;-33
2020/12/24 02:58:36;;;;;;;18.45;5.60;;;;;;;-3.50;87.46;101343.14;1780762;80;20943;-34
2020/12/24 03:01:03;;;;;;;12.70;5.53;;;;;;;-3.50;87.48;101340.61;1780737;80;21002;-36
2020/12/24 03:03:31;;;;;;;14.33;5.62;;;;;;;-3.47;87.51;101347.52;1752498;80;21030;-33
2020/12/24 03:05:59;;;;;;;7.85;4.90;;;;;;;-3.50;87.50;101345.67;1780694;80;21381;-35
2020/12/24 03:08:28;;;;;;;16.67;5.50;;;;;;;-3.50;87.52;101344.41;1780777;80;20927;-35
2020/12/24 03:10:56;;;;;;;21.68;6.35;;;;;;;-3.50;87.55;101346.94;1780822;80;20999;-34
2020/12/24 03:13:24;;;;;;;13.53;5.72;;;;;;;-3.50;87.57;101351.16;1752716;80;21058;-36
2020/12/24 03:15:52;;;;;;;28.30;6.70;;;;;;;-3.50;87.61;101349.47;1780687;80;20994;-35
2020/12/24 03:18:20;;;;;;;22.30;6.75;;;;;;;-3.50;87.60;101360.02;1777011;80;22629;-35
2020/12/24 03:20:48;;;;;;;20.37;7.47;;;;;;;-3.48;87.61;101361.81;1774830;80;21051;-36
2020/12/24 03:23:16;;;;;;;33.25;9.68;;;;;;;-3.47;87.61;101360.17;1775052;80;20998;-35
2020/12/24 03:25:44;;;;;;;30.17;7.80;;;;;;;-3.48;87.60;101359.28;1774935;80;21007;-34
2020/12/24 03:28:12;;;;;;;18.60;6.35;;;;;;;-3.46;87.61;101356.84;1775016;80;21358;-35
2020/12/24 03:33:27;;;;;;;10.25;7.10;;;;;;;-3.41;87.51;101360.87;1777150;79;22035;-34
2020/12/24 03:35:55;;;;;;;16.90;7.78;;;;;;;-3.44;87.49;101367.04;1749681;82;20912;-35
2020/12/24 03:38:22;;;;;;;11.22;7.83;;;;;;;-3.42;87.44;101366.72;1749804;81;21437;-35
2020/12/24 03:40:51;;;;;;;19.55;7.20;;;;;;;-3.42;87.43;101357.48;1749675;82;20983;-36
2020/12/24 03:43:19;;;;;;;9.53;6.87;;;;;;;-3.39;87.42;101358.91;1749843;82;20896;-34
2020/12/24 03:45:46;;;;;;;13.93;7.15;;;;;;;-3.37;87.37;101350.99;1749688;82;20971;-35
2020/12/24 03:48:14;;;;;;;14.10;7.58;;;;;;;-3.35;87.29;101347.29;1749842;82;20987;-35
2020/12/24 03:50:42;;;;;;;8.65;7.15;;;;;;;-3.36;87.26;101344.28;1749732;82;21308;-35
2020/12/24 03:53:10;;;;;;;9.25;6.65;;;;;;;-3.37;87.26;101337.06;1749618;82;21038;-36
2020/12/24 03:55:38;;;;;;;8.93;7.03;;;;;;;-3.36;87.30;101341.34;1749840;82;21522;-35
2020/12/24 03:58:06;;;;;;;11.63;8.15;;;;;;;-3.35;87.31;101343.49;1749715;82;21466;-35
2020/12/24 04:00:34;;;;;;;11.95;7.25;;;;;;;-3.35;87.29;101341.81;1749754;81;20915;-34
2020/12/24 04:03:02;;;;;;;12.10;8.35;;;;;;;-3.35;87.31;101339.69;1749673;82;21200;-34
2020/12/24 04:05:31;;;;;;;11.20;8.38;;;;;;;-3.35;87.34;101342.23;1749674;82;20967;-35
2020/12/24 04:07:58;;;;;;;11.70;8.73;;;;;;;-3.34;87.35;101342.70;1749738;82;20971;-35
2020/12/24 04:10:27;;;;;;;14.50;9.38;;;;;;;-3.34;87.37;101351.56;1749645;82;20888;-36
2020/12/24 04:12:55;;;;;;;13.62;9.00;;;;;;;-3.34;87.36;101353.69;1749718;82;20995;-35
2020/12/24 04:15:23;;;;;;;15.78;9.08;;;;;;;-3.33;87.37;101346.56;1749754;82;21203;-36
2020/12/24 04:17:51;;;;;;;10.58;7.50;;;;;;;-3.32;87.36;101352.10;1749752;81;21006;-34
2020/12/24 04:20:19;;;;;;;14.40;8.90;;;;;;;-3.32;87.32;101345.77;1749653;82;20919;-35
2020/12/24 04:22:47;;;;;;;13.60;8.53;;;;;;;-3.33;87.26;101351.63;1749708;82;21018;-34
2020/12/24 04:25:15;;;;;;;17.15;8.93;;;;;;;-3.35;87.25;101351.94;1749767;81;20943;-35
2020/12/24 04:27:43;;;;;;;34.40;10.25;;;;;;;-3.35;87.21;101352.36;1749682;82;21406;-37
2020/12/24 04:30:10;;;;;;;23.50;10.05;;;;;;;-3.34;87.24;101352.42;1749597;82;20967;-35
2020/12/24 04:32:38;;;;;;;15.00;10.65;;;;;;;-3.33;87.22;101354.57;1742392;81;20933;-35
2020/12/24 04:35:06;;;;;;;30.57;9.93;;;;;;;-3.33;87.24;101355.84;1736508;82;20941;-34
2020/12/24 04:37:34;;;;;;;22.90;10.05;;;;;;;-3.32;87.26;101358.44;1736433;82;20940;-35
2020/12/24 04:40:03;;;;;;;10.90;8.00;;;;;;;-3.30;87.27;101358.53;1736636;82;22062;-34
2020/12/24 04:42:32;;;;;;;11.05;7.90;;;;;;;-3.30;87.26;101359.80;1736439;82;21019;-34
2020/12/24 04:45:00;;;;;;;12.35;9.18;;;;;;;-3.31;87.28;101354.25;1735935;82;21539;-34
2020/12/24 04:47:29;;;;;;;12.75;8.83;;;;;;;-3.32;87.29;101355.05;1736022;82;21503;-34
2020/12/24 04:49:59;;;;;;;17.75;10.03;;;;;;;-3.33;87.35;101359.22;1735977;82;20929;-35
2020/12/24 04:52:27;;;;;;;15.98;9.43;;;;;;;-3.34;87.34;101361.69;1735936;82;21200;-34
2020/12/24 04:54:55;;;;;;;16.87;10.30;;;;;;;-3.35;87.35;101362.07;1735894;81;20937;-35
2020/12/24 04:57:23;;;;;;;14.68;9.98;;;;;;;-3.36;87.37;101357.80;1715416;82;20992;-35
2020/12/24 04:59:52;;;;;;;19.37;11.00;;;;;;;-3.34;87.35;101361.69;1735958;82;20979;-34
2020/12/24 05:02:20;;;;;;;15.15;9.00;;;;;;;-3.34;87.34;101356.63;1735934;81;21039;-36
2020/12/24 05:04:53;;;;;;;13.62;9.58;;;;;;;-3.36;87.36;101354.00;1736006;82;22729;-34
2020/12/24 05:07:21;;;;;;;17.32;10.13;;;;;;;-3.37;87.33;101352.26;1716306;82;20972;-36
2020/12/24 05:09:54;;;;;;;14.98;9.78;;;;;;;-3.39;87.38;101341.18;1735933;82;20979;-33
2020/12/24 05:12:30;;;;;;;18.40;10.45;;;;;;;-3.38;87.42;101338.27;1735713;82;21035;-36
2020/12/24 05:15:00;;;;;;;14.75;8.73;;;;;;;-3.39;87.47;101332.73;1735965;82;21004;-34
2020/12/24 05:17:27;;;;;;;18.45;9.23;;;;;;;-3.41;87.49;101330.10;1735939;82;21240;-37
2020/12/24 05:20:03;;;;;;;12.28;8.55;;;;;;;-3.39;87.41;101334.00;1735829;82;20944;-36
2020/12/24 05:22:31;;;;;;;12.60;8.65;;;;;;;-3.40;87.40;101333.52;1735710;82;21015;-35
2020/12/24 05:25:19;;;;;;;11.00;7.78;;;;;;;-3.39;87.38;101330.20;1735921;82;20983;-34
2020/12/24 05:27:58;;;;;;;12.50;7.22;;;;;;;-3.39;87.35;101334.00;1735948;82;20968;-35
2020/12/24 05:30:27;;;;;;;12.63;8.18;;;;;;;-3.40;87.31;101330.98;1734464;82;22447;-36
2020/12/24 05:32:55;;;;;;;13.10;7.08;;;;;;;-3.41;87.29;101335.17;1736083;82;21466;-34
2020/12/24 05:35:24;;;;;;;14.38;8.35;;;;;;;-3.40;87.33;101336.05;1735939;81;20936;-33
2020/12/24 05:37:52;;;;;;;10.32;7.25;;;;;;;-3.38;87.34;101339.53;1735855;82;21218;-35
2020/12/24 05:40:28;;;;;;;9.73;7.35;;;;;;;-3.36;87.28;101332.89;1735902;82;20928;-35
2020/12/24 05:43:00;;;;;;;;;;;;;;;-3.36;87.25;101337.54;1738535;82;21200;-35
2020/12/24 05:45:29;;;;;;;10.70;6.70;;;;;;;-3.36;87.14;101337.95;1735982;81;20504;-35
2020/12/24 05:48:09;;;;;;;7.62;5.60;;;;;;;-3.37;87.15;101332.00;1735970;82;21391;-34
2020/12/24 05:50:38;;;;;;;7.75;5.80;;;;;;;-3.37;87.06;101339.59;1735933;82;21016;-35
2020/12/24 05:53:16;;;;;;;15.43;5.53;;;;;;;-3.36;87.07;101337.95;1735949;82;21042;-35
2020/12/24 05:55:44;;;;;;;12.98;5.20;;;;;;;-3.36;87.01;101343.02;1734189;82;21284;-35
2020/12/24 05:58:11;;;;;;;5.58;4.72;;;;;;;-3.36;87.01;101348.94;1735881;82;20988;-36
2020/12/24 06:00:41;;;;;;;4.33;3.92;;;;;;;-3.35;87.00;101345.61;1735887;82;20955;-35
2020/12/24 06:03:15;;;;;;;5.22;4.45;;;;;;;-3.34;86.87;101349.89;1735839;82;20884;-36
2020/12/24 06:05:59;;;;;;;3.85;3.45;;;;;;;-3.33;86.89;101341.50;1735881;82;21047;-35
2020/12/24 06:08:31;;;;;;;4.70;4.30;;;;;;;-3.31;86.89;101345.39;1736080;82;22600;-35
2020/12/24 06:11:08;;;;;;;5.55;3.83;;;;;;;-3.31;86.78;101346.66;1735815;82;20972;-34
2020/12/24 06:13:43;;;;;;;;;;;;;;;-3.30;86.76;101350.93;1738495;81;20934;-36
2020/12/24 06:16:13;;;;;;;8.23;3.98;;;;;;;-3.29;86.70;101344.19;1735907;82;20512;-33
2020/12/24 06:18:45;;;;;;;3.20;2.90;;;;;;;-3.29;86.69;101342.54;1735892;81;21051;-34
2020/12/24 06:21:17;;;;;;;3.60;3.30;;;;;;;-3.28;86.63;101337.95;1735985;82;21422;-34
2020/12/24 06:23:49;;;;;;;3.80;3.37;;;;;;;-3.26;86.64;101347.77;1735847;82;20979;-35
2020/12/24 06:26:21;;;;;;;3.42;3.05;;;;;;;-3.25;86.60;101335.57;1711052;82;20937;-35
2020/12/24 06:28:54;;;;;;;5.15;3.67;;;;;;;-3.25;86.52;101344.44;1735991;82;20932;-33
2020/12/24 06:31:22;;;;;;;3.42;3.12;;;;;;;-3.24;86.57;101338.58;1735997;82;21534;-35
2020/12/24 06:33:50;;;;;;;3.25;3.05;;;;;;;-3.23;86.55;101339.47;1745144;81;22648;-35
2020/12/24 06:36:35;;;;;;;4.75;3.37;;;;;;;-3.21;86.55;101342.95;1749820;82;20999;-34
2020/12/24 06:39:05;;;;;;;4.60;3.67;;;;;;;-3.20;86.50;101339.20;1750136;82;20971;-36
2020/12/24 06:41:38;;;;;;;4.55;3.58;;;;;;;-3.19;86.57;101338.41;1749789;82;21853;-35
2020/12/24 06:44:07;;;;;;;4.92;3.83;;;;;;;-3.16;86.56;101332.65;1749922;82;20932;-34
2020/12/24 06:46:57;;;;;;;5.60;3.80;;;;;;;-3.14;86.53;101326.41;1749864;82;21246;-35
2020/12/24 06:49:31;;;;;;;4.12;3.58;;;;;;;-3.13;86.54;101318.02;1749832;82;20995;-34
2020/12/24 06:51:59;;;;;;;5.35;4.00;;;;;;;-3.10;86.49;101316.49;1749835;82;21003;-34
2020/12/24 06:54:28;;;;;;;5.30;3.60;;;;;;;-3.07;86.44;101315.79;1749753;82;20936;-34
2020/12/24 06:57:24;;;;;;;4.00;3.58;;;;;;;-3.06;86.33;101313.73;1749886;82;21030;-35
2020/12/24 07:00:20;;;;;;;4.15;3.72;;;;;;;-3.06;86.38;101309.93;1749805;82;21486;-36
2020/12/24 07:02:49;;;;;;;13.65;4.78;;;;;;;-3.01;86.32;101315.24;1749715;82;20894;-35
2020/12/24 07:05:42;;;;;;;4.50;4.10;;;;;;;-3.02;86.26;101309.29;1749887;82;20916;-34
2020/12/24 07:08:31;;;;;;;4.60;4.08;;;;;;;-2.99;86.24;101301.84;1749828;82;21054;-34
2020/12/24 07:11:01;;;;;;;9.15;4.10;;;;;;;-2.97;86.07;101306.58;1739190;82;20971;-36
2020/12/24 07:13:38;;;;;;;20.90;4.90;;;;;;;-2.94;86.02;101310.95;1689792;80;83550;-35
2020/12/24 07:16:11;;;;;;;16.00;4.70;;;;;;;-2.91;85.99;101314.48;1575253;91;20965;-35
2020/12/24 07:18:40;;;;;;;28.40;6.37;;;;;;;-2.87;85.85;101314.25;1575151;91;20978;-34
2020/12/24 07:21:09;;;;;;;12.88;5.08;;;;;;;-2.84;85.64;101317.36;1575272;90;21185;-33
2020/12/24 07:23:40;;;;;;;7.72;4.72;;;;;;;-2.81;85.52;101313.70;1575398;91;21488;-34
2020/12/24 07:26:10;;;;;;;6.12;4.78;;;;;;;-2.78;85.41;101313.85;1575284;90;21377;-35
2020/12/24 07:28:40;;;;;;;5.72;4.58;;;;;;;-2.77;85.29;101316.86;1575291;90;21095;-34
2020/12/24 07:31:10;;;;;;;10.75;4.53;;;;;;;-2.76;85.02;101319.48;1575355;91;21503;-35
2020/12/24 07:33:46;;;;;;;10.48;5.20;;;;;;;-2.73;85.05;101321.28;1578066;89;20954;-34
2020/12/24 07:36:14;;;;;;;7.45;5.10;;;;;;;-2.72;84.85;101320.48;1581235;90;21556;-34
2020/12/24 07:38:43;;;;;;;5.50;4.90;;;;;;;-2.68;84.89;101325.32;1581088;90;21678;-33
2020/12/24 07:41:18;;;;;;;6.35;5.15;;;;;;;-2.64;84.85;101322.14;1581095;89;21108;-35
2020/12/24 07:43:46;;;;;;;5.70;5.03;;;;;;;-2.61;84.75;101315.56;1581047;90;20985;-35
2020/12/24 07:46:15;;;;;;;34.67;4.83;;;;;;;-2.57;84.61;101316.98;1581112;90;21128;-35
2020/12/24 07:48:43;;;;;;;5.20;4.45;;;;;;;-2.57;84.33;101316.98;1581113;90;21054;-36
2020/12/24 07:51:11;;;;;;;6.72;4.80;;;;;;;-2.56;84.12;101316.19;1581041;90;21280;-36
2020/12/24 07:53:39;;;;;;;8.30;4.37;;;;;;;-2.56;83.81;101318.72;1581040;90;21606;-35
2020/12/24 07:56:11;;;;;;;10.98;4.92;;;;;;;-2.56;83.84;101318.72;1581114;90;20982;-36
2020/12/24 07:58:39;;;;;;;7.08;5.28;;;;;;;-2.55;83.80;101320.05;1581173;90;20922;-36
2020/12/24 08:01:07;;;;;;;9.73;4.85;;;;;;;-2.53;83.61;101313.80;1581053;90;21479;-34
2020/12/24 08:03:35;;;;;;;7.58;5.08;;;;;;;-2.54;83.62;101322.20;1581146;89;22773;-34
2020/12/24 08:06:05;;;;;;;10.88;6.05;;;;;;;-2.55;83.70;101321.73;1581092;90;20985;-34
2020/12/24 08:08:35;;;;;;;9.70;6.90;;;;;;;-2.51;83.87;101321.08;1581102;90;21017;-36
2020/12/24 08:11:07;;;;;;;23.57;7.00;;;;;;;-2.48;83.75;101321.22;1581042;90;21052;-35
2020/12/24 08:13:35;;;;;;;43.25;7.67;;;;;;;-2.47;83.55;101324.23;1581201;90;20965;-35
2020/12/24 08:16:02;;;;;;;48.02;7.67;;;;;;;-2.47;83.44;101326.38;1581112;90;21390;-35
2020/12/24 08:18:37;;;;;;;54.70;8.18;;;;;;;-2.48;83.21;101331.36;1570509;90;21191;-34
2020/12/24 08:21:25;;;;;;;53.58;6.83;;;;;;;-2.47;83.17;101326.77;1581278;90;20953;-34
2020/12/24 08:23:59;;;;;;;58.10;7.72;;;;;;;-2.42;83.20;101332.92;1581160;90;21120;-35
2020/12/24 08:26:27;;;;;;;16.85;7.25;;;;;;;-2.42;83.01;101323.20;1581217;89;20965;-35
2020/12/24 08:28:56;;;;;;;26.48;7.55;;;;;;;-2.40;83.07;101319.95;1581180;89;21208;-35
2020/12/24 08:31:25;;;;;;;30.45;6.55;;;;;;;-2.37;82.94;101309.95;1581122;89;21024;-35
2020/12/24 08:33:53;;;;;;;21.82;6.10;;;;;;;-2.35;82.89;101308.73;1587555;89;21047;-35
2020/12/24 08:39:09;;;;;;;39.42;6.53;;;;;;;-2.26;82.55;101305.39;1812801;77;22706;-37
2020/12/24 08:41:40;;;;;;;17.73;6.10;;;;;;;-2.29;82.43;101302.68;1784317;80;21383;-35
2020/12/24 08:44:08;;;;;;;17.73;6.90;;;;;;;-2.26;82.43;101290.17;1784288;80;21342;-34
2020/12/24 08:46:36;;;;;;;26.80;6.50;;;;;;;-2.25;82.77;101293.17;1784188;80;20973;-36
2020/12/24 08:49:25;;;;;;;10.82;6.55;;;;;;;-2.22;82.95;101287.36;1784255;80;20919;-37
2020/12/24 08:52:10;;;;;;;21.50;6.90;;;;;;;-2.17;82.92;101283.36;1784230;80;21470;-34
2020/12/24 08:54:38;;;;;;;7.83;5.30;;;;;;;-2.10;82.87;101284.53;1784375;80;20999;-35
2020/12/24 08:57:11;;;;;;;18.32;6.58;;;;;;;-2.08;82.84;101276.59;1784205;80;21269;-36
2020/12/24 08:59:39;;;;;;;19.17;6.85;;;;;;;-2.06;82.86;101282.59;1784261;80;21080;-36
2020/12/24 09:02:07;;;;;;;21.95;6.55;;;;;;;-2.04;82.69;101275.54;1784286;80;20975;-35
2020/12/24 09:04:34;;;;;;;17.05;6.53;;;;;;;-2.05;82.55;101271.65;1784174;80;20915;-35
2020/12/24 09:07:02;;;;;;;11.28;5.85;;;;;;;-2.05;82.68;101272.92;1784273;80;21292;-35
2020/12/24 09:09:30;;;;;;;10.90;6.00;;;;;;;-2.04;82.54;101267.93;1784298;80;21114;-35
2020/12/24 09:11:58;;;;;;;13.28;6.45;;;;;;;-2.06;82.53;101268.64;1784104;80;20990;-37
2020/12/24 09:14:28;;;;;;;8.43;5.28;;;;;;;-2.09;82.62;101264.31;1700949;80;20998;-35
2020/12/24 09:16:58;;;;;;;8.23;5.30;;;;;;;-2.09;82.82;101255.44;1784100;80;21006;-36
2020/12/24 09:19:26;;;;;;;8.30;5.55;;;;;;;-2.08;82.92;101252.09;1784291;80;20970;-37
2020/12/24 09:21:58;;;;;;;5.35;4.85;;;;;;;-2.06;82.79;101250.50;1784205;80;21194;-36
2020/12/24 09:24:26;;;;;;;6.33;5.40;;;;;;;-2.04;82.93;101252.70;1784099;80;21018;-36
2020/12/24 09:26:55;;;;;;;6.85;5.90;;;;;;;-2.02;82.67;101260.41;1784181;80;20884;-34
2020/12/24 09:29:27;;;;;;;6.20;5.03;;;;;;;-2.03;82.81;101259.52;1784292;80;20923;-33
2020/12/24 09:31:57;;;;;;;8.18;5.30;;;;;;;-2.02;82.79;101257.45;1784291;80;21410;-34
2020/12/24 09:34:29;;;;;;;18.77;5.97;;;;;;;-2.02;82.76;101257.45;1784194;80;21457;-33
2020/12/24 09:36:57;;;;;;;11.60;5.20;;;;;;;-2.04;82.82;101257.78;1783779;80;20955;-37
2020/12/24 09:39:25;;;;;;;10.08;5.45;;;;;;;-2.01;82.74;101258.33;1751355;82;21025;-35
2020/12/24 09:41:53;;;;;;;6.80;5.42;;;;;;;-2.01;82.59;101253.25;1751334;82;21595;-34
2020/12/24 09:44:21;;;;;;;42.83;7.42;;;;;;;-2.02;82.51;101251.10;1751327;82;20961;-36
2020/12/24 09:46:49;;;;;;;17.60;6.78;;;;;;;-2.01;82.38;101248.18;1751336;82;21148;-36
2020/12/24 09:49:17;;;;;;;31.87;5.85;;;;;;;-2.02;82.57;101246.02;1750889;80;21025;-35
2020/12/24 09:51:47;;;;;;;35.17;6.83;;;;;;;-1.98;82.55;101242.36;1750787;82;21052;-35
2020/12/24 09:54:17;;;;;;;32.10;6.53;;;;;;;-1.96;82.49;101247.09;1747906;82;21005;-34
2020/12/24 09:56:45;;;;;;;27.87;6.80;;;;;;;-1.95;82.39;101239.95;1750825;82;21332;-36
2020/12/24 09:59:13;;;;;;;11.12;6.28;;;;;;;-1.92;82.46;101240.09;1750828;82;22800;-36
2020/12/24 10:01:41;;;;;;;8.70;5.85;;;;;;;-1.89;82.40;101233.91;1750782;82;21548;-35
2020/12/24 10:04:09;;;;;;;8.63;5.67;;;;;;;-1.87;82.38;101229.77;1750729;82;21013;-35
2020/12/24 10:06:37;;;;;;;8.98;5.58;;;;;;;-1.87;82.22;101224.69;1750645;81;20982;-35
2020/12/24 10:09:05;;;;;;;14.35;6.00;;;;;;;-1.89;82.21;101225.02;1750776;82;20962;-34
2020/12/24 10:11:33;;;;;;;9.08;6.05;;;;;;;-1.92;82.22;101216.86;1750787;82;21208;-35
2020/12/24 10:14:01;;;;;;;21.45;6.25;;;;;;;-1.94;82.21;101212.12;1750767;82;21110;-35
2020/12/24 10:16:30;;;;;;;9.50;6.72;;;;;;;-1.96;82.36;101206.49;1750694;82;20925;-36
2020/12/24 10:18:58;;;;;;;7.55;6.05;;;;;;;-1.95;82.52;101212.92;1750672;82;20957;-34
2020/12/24 10:21:27;;;;;;;10.13;6.60;;;;;;;-1.93;82.48;101205.36;1750846;82;21033;-36
2020/12/24 10:23:57;;;;;;;72.20;8.53;;;;;;;-1.93;82.54;101207.51;1746838;82;21378;-34
2020/12/24 10:26:24;;;;;;;92.42;10.08;;;;;;;-1.92;82.57;101209.25;1750687;82;21103;-37
2020/12/24 10:28:52;;;;;;;61.75;9.25;;;;;;;-1.93;82.78;101204.97;1750744;82;20882;-36
2020/12/24 10:31:19;;;;;;;93.75;11.15;;;;;;;-1.91;82.87;101206.29;1750749;82;21001;-35
2020/12/24 10:33:47;;;;;;;50.67;8.65;;;;;;;-1.89;82.90;101202.19;1750673;82;20978;-34
2020/12/24 10:36:24;;;;;;;23.77;7.75;;;;;;;-1.87;83.02;101196.77;1750785;82;21199;-34
2020/12/24 10:38:52;;;;;;;17.02;8.40;;;;;;;-1.83;83.03;101188.87;1766934;79;20967;-35
2020/12/24 10:41:19;;;;;;;13.25;6.75;;;;;;;-1.80;83.00;101182.27;1775896;80;20976;-37
2020/12/24 10:43:48;;;;;;;11.18;7.28;;;;;;;-1.79;83.00;101184.00;1775794;80;20932;-35
2020/12/24 10:46:21;;;;;;;12.98;7.28;;;;;;;-1.79;83.05;101186.54;1775936;80;20999;-34
2020/12/24 10:48:47;;;;;;;12.88;7.87;;;;;;;-1.81;83.08;101183.07;1775935;80;21305;-34
2020/12/24 10:51:15;;;;;;;11.60;7.85;;;;;;;-1.79;83.22;101180.58;1775812;80;21010;-36
2020/12/24 10:53:43;;;;;;;13.85;8.00;;;;;;;-1.79;83.28;101172.58;1775875;80;20991;-35
2020/12/24 10:56:12;;;;;;;14.43;8.93;;;;;;;-1.81;83.31;101175.45;1743410;80;21062;-36
2020/12/24 10:58:44;;;;;;;15.03;9.10;;;;;;;-1.83;83.56;101171.09;1775878;80;20896;-37
2020/12/24 11:01:15;;;;;;;13.45;9.23;;;;;;;-1.84;83.58;101177.86;1775869;80;21349;-36
2020/12/24 11:03:44;;;;;;;22.82;10.53;;;;;;;-1.88;83.70;101165.42;1775763;80;20975;-36
2020/12/24 11:06:23;;;;;;;21.85;10.70;;;;;;;-1.87;83.83;101166.31;1775817;80;20940;-34
2020/12/24 11:08:52;;;;;;;19.73;9.63;;;;;;;-1.86;83.75;101161.70;1775924;80;21474;-35
2020/12/24 11:11:19;;;;;;;15.20;10.18;;;;;;;-1.92;83.97;101153.41;1775903;80;20963;-36
2020/12/24 11:13:48;;;;;;;21.30;10.78;;;;;;;-1.94;84.13;101156.67;1775878;80;22043;-34
2020/12/24 11:16:24;;;;;;;21.75;9.73;;;;;;;-1.95;84.28;101143.51;1775814;80;21007;-35
2020/12/24 11:18:52;;;;;;;18.80;10.05;;;;;;;-1.94;84.38;101140.17;1775806;80;20920;-36
2020/12/24 11:21:20;;;;;;;15.50;10.15;;;;;;;-1.95;84.52;101142.24;1775864;80;20928;-37
2020/12/24 11:23:49;;;;;;;18.98;10.45;;;;;;;-1.94;84.53;101148.67;1775836;80;20927;-35
2020/12/24 11:26:23;;;;;;;20.37;11.50;;;;;;;-1.91;84.51;101139.03;1775865;80;21134;-35
2020/12/24 11:28:53;;;;;;;21.65;11.75;;;;;;;-1.93;84.58;101146.59;1775553;80;20955;-36
2020/12/24 11:31:25;;;;;;;23.77;12.30;;;;;;;-1.91;84.68;101139.03;1775887;80;20908;-36
2020/12/24 11:33:52;;;;;;;23.07;12.33;;;;;;;-1.92;84.72;101152.52;1775764;80;21038;-35
2020/12/24 11:36:21;;;;;;;23.30;11.63;;;;;;;-1.90;84.80;101150.92;1775866;80;20924;-33